sensor_id;sensor_type;location;lat;lon;timestamp;P1;durP1;ratioP1;P2;durP2;ratioP2
43519;SDS011;46848;51.980;5.918;2022-08-01T00:00:32;6.65;;;4.93;;
43519;SDS011;46848;51.980;5.918;2022-08-01T00:02:58;7.03;;;5.13;;
43519;SDS011;46848;51.980;5.918;2022-08-01T00:05:24;7.55;;;5.50;;
43519;SDS011;46848;51.980;5.918;2022-08-01T00:07:50;8.48;;;6.10;;
43519;SDS011;46848;51.980;5.918;2022-08-01T00:10:16;8.35;;;6.13;;
43519;SDS011;46848;51.980;5.918;2022-08-01T00:12:42;8.25;;;5.93;;
43519;SDS011;46848;51.980;5.918;2022-08-01T00:15:10;8.93;;;6.60;;
43519;SDS011;46848;51.980;5.918;2022-08-01T00:17:37;8.30;;;5.70;;
43519;SDS011;46848;51.980;5.918;2022-08-01T00:20:05;9.02;;;6.10;;
43519;SDS011;46848;51.980;5.918;2022-08-01T00:22:32;10.00;;;6.03;;
43519;SDS011;46848;51.980;5.918;2022-08-01T00:24:59;9.10;;;6.15;;
43519;SDS011;46848;51.980;5.918;2022-08-01T00:27:25;9.07;;;5.93;;
43519;SDS011;46848;51.980;5.918;2022-08-01T00:29:51;8.18;;;6.30;;
43519;SDS011;46848;51.980;5.918;2022-08-01T00:32:17;8.40;;;6.30;;
43519;SDS011;46848;51.980;5.918;2022-08-01T00:34:42;8.40;;;6.00;;
43519;SDS011;46848;51.980;5.918;2022-08-01T00:37:08;8.10;;;6.43;;
43519;SDS011;46848;51.980;5.918;2022-08-01T00:39:34;9.43;;;6.20;;
43519;SDS011;46848;51.980;5.918;2022-08-01T00:42:00;7.60;;;6.28;;
43519;SDS011;46848;51.980;5.918;2022-08-01T00:44:31;8.23;;;6.40;;
43519;SDS011;46848;51.980;5.918;2022-08-01T00:46:56;9.80;;;6.18;;
43519;SDS011;46848;51.980;5.918;2022-08-01T00:49:22;7.82;;;6.43;;
43519;SDS011;46848;51.980;5.918;2022-08-01T00:51:48;9.18;;;6.95;;
43519;SDS011;46848;51.980;5.918;2022-08-01T00:54:14;9.77;;;7.15;;
43519;SDS011;46848;51.980;5.918;2022-08-01T00:56:40;9.05;;;7.03;;
43519;SDS011;46848;51.980;5.918;2022-08-01T00:59:06;9.57;;;8.07;;
43519;SDS011;46848;51.980;5.918;2022-08-01T01:01:32;9.20;;;7.43;;
43519;SDS011;46848;51.980;5.918;2022-08-01T01:03:59;9.20;;;8.20;;
43519;SDS011;46848;51.980;5.918;2022-08-01T01:06:45;9.20;;;7.53;;
43519;SDS011;46848;51.980;5.918;2022-08-01T01:09:43;8.75;;;7.68;;
43519;SDS011;46848;51.980;5.918;2022-08-01T01:15:03;9.55;;;8.48;;
43519;SDS011;46848;51.980;5.918;2022-08-01T01:17:41;10.18;;;7.50;;
43519;SDS011;46848;51.980;5.918;2022-08-01T01:20:10;9.23;;;7.20;;
43519;SDS011;46848;51.980;5.918;2022-08-01T01:30:43;10.73;;;7.37;;
43519;SDS011;46848;51.980;5.918;2022-08-01T01:33:11;8.25;;;6.95;;
43519;SDS011;46848;51.980;5.918;2022-08-01T01:35:41;10.02;;;6.95;;
43519;SDS011;46848;51.980;5.918;2022-08-01T01:38:14;9.98;;;6.90;;
43519;SDS011;46848;51.980;5.918;2022-08-01T01:40:46;8.85;;;6.90;;
43519;SDS011;46848;51.980;5.918;2022-08-01T01:43:13;9.05;;;6.55;;
43519;SDS011;46848;51.980;5.918;2022-08-01T01:45:41;9.10;;;7.25;;
43519;SDS011;46848;51.980;5.918;2022-08-01T01:48:10;8.90;;;6.45;;
43519;SDS011;46848;51.980;5.918;2022-08-01T01:50:39;9.98;;;6.75;;
43519;SDS011;46848;51.980;5.918;2022-08-01T01:53:06;8.30;;;6.00;;
43519;SDS011;46848;51.980;5.918;2022-08-01T01:55:35;8.13;;;6.20;;
43519;SDS011;46848;51.980;5.918;2022-08-01T01:58:03;9.10;;;6.30;;
43519;SDS011;46848;51.980;5.918;2022-08-01T02:00:31;9.60;;;6.47;;
43519;SDS011;46848;51.980;5.918;2022-08-01T02:02:58;8.77;;;5.97;;
43519;SDS011;46848;51.980;5.918;2022-08-01T02:05:27;7.75;;;5.53;;
43519;SDS011;46848;51.980;5.918;2022-08-01T02:07:53;8.70;;;6.32;;
43519;SDS011;46848;51.980;5.918;2022-08-01T02:10:20;7.68;;;6.13;;
43519;SDS011;46848;51.980;5.918;2022-08-01T02:12:47;8.57;;;5.57;;
43519;SDS011;46848;51.980;5.918;2022-08-01T02:15:14;11.05;;;5.82;;
43519;SDS011;46848;51.980;5.918;2022-08-01T02:17:43;8.73;;;5.25;;
43519;SDS011;46848;51.980;5.918;2022-08-01T02:20:12;7.97;;;5.72;;
43519;SDS011;46848;51.980;5.918;2022-08-01T02:22:49;8.40;;;5.65;;
43519;SDS011;46848;51.980;5.918;2022-08-01T02:25:30;9.63;;;5.63;;
43519;SDS011;46848;51.980;5.918;2022-08-01T02:30:30;7.50;;;5.28;;
43519;SDS011;46848;51.980;5.918;2022-08-01T02:32:59;10.93;;;6.90;;
43519;SDS011;46848;51.980;5.918;2022-08-01T02:35:32;9.57;;;6.00;;
43519;SDS011;46848;51.980;5.918;2022-08-01T02:38:02;9.57;;;6.13;;
43519;SDS011;46848;51.980;5.918;2022-08-01T02:40:31;9.10;;;5.95;;
43519;SDS011;46848;51.980;5.918;2022-08-01T02:42:57;10.30;;;6.40;;
43519;SDS011;46848;51.980;5.918;2022-08-01T02:45:26;9.80;;;6.43;;
43519;SDS011;46848;51.980;5.918;2022-08-01T02:47:54;9.77;;;6.72;;
43519;SDS011;46848;51.980;5.918;2022-08-01T02:50:24;10.20;;;6.90;;
43519;SDS011;46848;51.980;5.918;2022-08-01T02:52:52;9.57;;;6.40;;
43519;SDS011;46848;51.980;5.918;2022-08-01T02:55:19;10.35;;;6.53;;
43519;SDS011;46848;51.980;5.918;2022-08-01T02:57:46;10.45;;;6.68;;
43519;SDS011;46848;51.980;5.918;2022-08-01T03:00:15;12.45;;;5.65;;
43519;SDS011;46848;51.980;5.918;2022-08-01T03:02:41;10.98;;;6.60;;
43519;SDS011;46848;51.980;5.918;2022-08-01T03:05:10;9.35;;;6.40;;
43519;SDS011;46848;51.980;5.918;2022-08-01T03:07:37;9.35;;;6.20;;
43519;SDS011;46848;51.980;5.918;2022-08-01T03:10:04;11.32;;;5.93;;
43519;SDS011;46848;51.980;5.918;2022-08-01T03:12:31;11.38;;;6.85;;
43519;SDS011;46848;51.980;5.918;2022-08-01T03:14:59;9.32;;;6.22;;
43519;SDS011;46848;51.980;5.918;2022-08-01T03:17:27;10.55;;;6.85;;
43519;SDS011;46848;51.980;5.918;2022-08-01T03:19:54;8.05;;;6.13;;
43519;SDS011;46848;51.980;5.918;2022-08-01T03:22:22;6.68;;;4.82;;
43519;SDS011;46848;51.980;5.918;2022-08-01T03:24:51;7.25;;;4.93;;
43519;SDS011;46848;51.980;5.918;2022-08-01T03:27:19;5.68;;;4.13;;
43519;SDS011;46848;51.980;5.918;2022-08-01T03:29:46;4.70;;;3.38;;
43519;SDS011;46848;51.980;5.918;2022-08-01T03:32:13;5.43;;;3.65;;
43519;SDS011;46848;51.980;5.918;2022-08-01T03:34:41;5.63;;;4.28;;
43519;SDS011;46848;51.980;5.918;2022-08-01T03:37:26;5.35;;;4.13;;
43519;SDS011;46848;51.980;5.918;2022-08-01T03:39:58;5.95;;;4.25;;
43519;SDS011;46848;51.980;5.918;2022-08-01T03:42:41;5.05;;;3.63;;
43519;SDS011;46848;51.980;5.918;2022-08-01T03:45:11;4.30;;;2.75;;
43519;SDS011;46848;51.980;5.918;2022-08-01T03:47:44;3.85;;;2.70;;
43519;SDS011;46848;51.980;5.918;2022-08-01T03:50:13;4.15;;;2.80;;
43519;SDS011;46848;51.980;5.918;2022-08-01T03:52:41;3.80;;;2.40;;
43519;SDS011;46848;51.980;5.918;2022-08-01T03:55:10;4.32;;;2.45;;
43519;SDS011;46848;51.980;5.918;2022-08-01T03:57:37;4.25;;;2.88;;
43519;SDS011;46848;51.980;5.918;2022-08-01T04:00:05;4.88;;;3.30;;
43519;SDS011;46848;51.980;5.918;2022-08-01T04:02:34;4.97;;;3.00;;
43519;SDS011;46848;51.980;5.918;2022-08-01T04:05:02;4.55;;;3.22;;
43519;SDS011;46848;51.980;5.918;2022-08-01T04:07:29;5.63;;;2.92;;
43519;SDS011;46848;51.980;5.918;2022-08-01T04:09:57;3.78;;;3.03;;
43519;SDS011;46848;51.980;5.918;2022-08-01T04:12:23;6.25;;;3.13;;
43519;SDS011;46848;51.980;5.918;2022-08-01T04:14:49;5.30;;;3.53;;
43519;SDS011;46848;51.980;5.918;2022-08-01T04:17:15;6.18;;;4.05;;
43519;SDS011;46848;51.980;5.918;2022-08-01T04:19:42;5.15;;;3.80;;
43519;SDS011;46848;51.980;5.918;2022-08-01T04:22:08;3.92;;;3.08;;
43519;SDS011;46848;51.980;5.918;2022-08-01T04:24:36;4.78;;;3.13;;
43519;SDS011;46848;51.980;5.918;2022-08-01T04:27:05;6.38;;;3.58;;
43519;SDS011;46848;51.980;5.918;2022-08-01T04:29:35;4.78;;;3.28;;
43519;SDS011;46848;51.980;5.918;2022-08-01T04:32:02;4.70;;;3.35;;
43519;SDS011;46848;51.980;5.918;2022-08-01T04:34:31;5.60;;;3.28;;
43519;SDS011;46848;51.980;5.918;2022-08-01T04:36:58;5.47;;;3.90;;
43519;SDS011;46848;51.980;5.918;2022-08-01T04:39:25;5.88;;;3.67;;
43519;SDS011;46848;51.980;5.918;2022-08-01T04:41:53;4.53;;;3.22;;
43519;SDS011;46848;51.980;5.918;2022-08-01T04:44:22;5.70;;;3.40;;
43519;SDS011;46848;51.980;5.918;2022-08-01T04:46:48;7.97;;;3.83;;
43519;SDS011;46848;51.980;5.918;2022-08-01T04:49:15;5.65;;;3.78;;
43519;SDS011;46848;51.980;5.918;2022-08-01T04:51:51;4.85;;;3.63;;
43519;SDS011;46848;51.980;5.918;2022-08-01T04:54:23;5.22;;;3.55;;
43519;SDS011;46848;51.980;5.918;2022-08-01T04:56:52;4.20;;;3.25;;
43519;SDS011;46848;51.980;5.918;2022-08-01T04:59:23;5.28;;;4.03;;
43519;SDS011;46848;51.980;5.918;2022-08-01T05:02:04;4.45;;;3.33;;
43519;SDS011;46848;51.980;5.918;2022-08-01T05:04:30;6.28;;;3.67;;
43519;SDS011;46848;51.980;5.918;2022-08-01T05:06:56;5.97;;;3.83;;
43519;SDS011;46848;51.980;5.918;2022-08-01T05:09:21;6.78;;;3.75;;
43519;SDS011;46848;51.980;5.918;2022-08-01T05:11:47;4.28;;;3.35;;
43519;SDS011;46848;51.980;5.918;2022-08-01T05:14:13;5.00;;;3.63;;
43519;SDS011;46848;51.980;5.918;2022-08-01T05:16:38;5.18;;;3.40;;
43519;SDS011;46848;51.980;5.918;2022-08-01T05:19:04;6.40;;;3.78;;
43519;SDS011;46848;51.980;5.918;2022-08-01T05:21:30;4.15;;;3.10;;
43519;SDS011;46848;51.980;5.918;2022-08-01T05:23:56;8.20;;;3.58;;
43519;SDS011;46848;51.980;5.918;2022-08-01T05:26:22;5.78;;;3.65;;
43519;SDS011;46848;51.980;5.918;2022-08-01T05:28:48;4.80;;;3.25;;
43519;SDS011;46848;51.980;5.918;2022-08-01T05:31:14;5.68;;;3.33;;
43519;SDS011;46848;51.980;5.918;2022-08-01T05:33:39;4.90;;;3.72;;
43519;SDS011;46848;51.980;5.918;2022-08-01T05:36:05;4.07;;;3.20;;
43519;SDS011;46848;51.980;5.918;2022-08-01T05:38:31;5.13;;;3.38;;
43519;SDS011;46848;51.980;5.918;2022-08-01T05:40:56;4.82;;;3.78;;
43519;SDS011;46848;51.980;5.918;2022-08-01T05:43:22;6.00;;;3.78;;
43519;SDS011;46848;51.980;5.918;2022-08-01T05:45:48;5.40;;;3.35;;
43519;SDS011;46848;51.980;5.918;2022-08-01T05:48:13;5.32;;;4.07;;
43519;SDS011;46848;51.980;5.918;2022-08-01T05:50:39;5.20;;;3.83;;
43519;SDS011;46848;51.980;5.918;2022-08-01T05:53:05;5.50;;;3.50;;
43519;SDS011;46848;51.980;5.918;2022-08-01T05:55:30;5.05;;;3.22;;
43519;SDS011;46848;51.980;5.918;2022-08-01T05:57:56;4.45;;;3.10;;
43519;SDS011;46848;51.980;5.918;2022-08-01T06:00:22;5.53;;;4.03;;
43519;SDS011;46848;51.980;5.918;2022-08-01T06:02:47;5.22;;;3.90;;
43519;SDS011;46848;51.980;5.918;2022-08-01T06:05:13;6.03;;;3.20;;
43519;SDS011;46848;51.980;5.918;2022-08-01T06:07:39;5.60;;;2.58;;
43519;SDS011;46848;51.980;5.918;2022-08-01T06:10:05;4.32;;;2.35;;
43519;SDS011;46848;51.980;5.918;2022-08-01T06:12:35;3.40;;;2.25;;
43519;SDS011;46848;51.980;5.918;2022-08-01T06:15:01;3.30;;;1.80;;
43519;SDS011;46848;51.980;5.918;2022-08-01T06:17:29;3.22;;;1.42;;
43519;SDS011;46848;51.980;5.918;2022-08-01T06:19:55;3.30;;;1.48;;
43519;SDS011;46848;51.980;5.918;2022-08-01T06:22:21;2.78;;;1.20;;
43519;SDS011;46848;51.980;5.918;2022-08-01T06:24:46;1.65;;;1.20;;
43519;SDS011;46848;51.980;5.918;2022-08-01T06:27:12;2.38;;;1.13;;
43519;SDS011;46848;51.980;5.918;2022-08-01T06:29:38;1.73;;;1.20;;
43519;SDS011;46848;51.980;5.918;2022-08-01T06:32:03;2.13;;;1.00;;
43519;SDS011;46848;51.980;5.918;2022-08-01T06:34:29;1.38;;;0.77;;
43519;SDS011;46848;51.980;5.918;2022-08-01T06:36:55;1.08;;;0.80;;
43519;SDS011;46848;51.980;5.918;2022-08-01T06:39:20;2.00;;;0.90;;
43519;SDS011;46848;51.980;5.918;2022-08-01T06:41:46;1.52;;;0.43;;
43519;SDS011;46848;51.980;5.918;2022-08-01T06:44:12;0.40;;;0.40;;
43519;SDS011;46848;51.980;5.918;2022-08-01T06:46:38;1.15;;;0.85;;
43519;SDS011;46848;51.980;5.918;2022-08-01T06:49:04;1.45;;;0.68;;
43519;SDS011;46848;51.980;5.918;2022-08-01T06:51:29;1.33;;;0.85;;
43519;SDS011;46848;51.980;5.918;2022-08-01T06:53:55;1.55;;;0.80;;
43519;SDS011;46848;51.980;5.918;2022-08-01T06:56:21;0.90;;;0.60;;
43519;SDS011;46848;51.980;5.918;2022-08-01T06:58:46;1.98;;;0.82;;
43519;SDS011;46848;51.980;5.918;2022-08-01T07:01:12;0.63;;;0.50;;
43519;SDS011;46848;51.980;5.918;2022-08-01T07:03:38;1.77;;;0.60;;
43519;SDS011;46848;51.980;5.918;2022-08-01T07:06:03;1.10;;;0.60;;
43519;SDS011;46848;51.980;5.918;2022-08-01T07:08:29;3.45;;;1.20;;
43519;SDS011;46848;51.980;5.918;2022-08-01T07:10:55;2.17;;;1.17;;
43519;SDS011;46848;51.980;5.918;2022-08-01T07:13:24;1.98;;;0.93;;
43519;SDS011;46848;51.980;5.918;2022-08-01T07:15:51;1.52;;;0.80;;
43519;SDS011;46848;51.980;5.918;2022-08-01T07:18:17;1.80;;;1.10;;
43519;SDS011;46848;51.980;5.918;2022-08-01T07:20:43;2.45;;;0.88;;
43519;SDS011;46848;51.980;5.918;2022-08-01T07:23:11;2.60;;;1.00;;
43519;SDS011;46848;51.980;5.918;2022-08-01T07:25:37;1.85;;;1.00;;
43519;SDS011;46848;51.980;5.918;2022-08-01T07:28:03;2.10;;;1.25;;
43519;SDS011;46848;51.980;5.918;2022-08-01T07:30:29;1.88;;;0.95;;
43519;SDS011;46848;51.980;5.918;2022-08-01T07:32:55;2.83;;;1.20;;
43519;SDS011;46848;51.980;5.918;2022-08-01T07:35:22;1.95;;;0.90;;
43519;SDS011;46848;51.980;5.918;2022-08-01T07:37:47;2.85;;;0.98;;
43519;SDS011;46848;51.980;5.918;2022-08-01T07:40:13;1.23;;;0.70;;
43519;SDS011;46848;51.980;5.918;2022-08-01T07:42:39;1.55;;;1.00;;
43519;SDS011;46848;51.980;5.918;2022-08-01T07:45:08;2.35;;;1.08;;
43519;SDS011;46848;51.980;5.918;2022-08-01T07:47:34;1.23;;;0.77;;
43519;SDS011;46848;51.980;5.918;2022-08-01T07:50:00;2.05;;;0.75;;
43519;SDS011;46848;51.980;5.918;2022-08-01T07:52:27;1.35;;;0.73;;
43519;SDS011;46848;51.980;5.918;2022-08-01T07:54:53;2.72;;;1.00;;
43519;SDS011;46848;51.980;5.918;2022-08-01T07:57:19;1.42;;;0.80;;
43519;SDS011;46848;51.980;5.918;2022-08-01T07:59:45;1.02;;;0.70;;
43519;SDS011;46848;51.980;5.918;2022-08-01T08:02:11;2.92;;;0.80;;
43519;SDS011;46848;51.980;5.918;2022-08-01T08:04:36;3.65;;;1.73;;
43519;SDS011;46848;51.980;5.918;2022-08-01T08:07:02;3.03;;;1.48;;
43519;SDS011;46848;51.980;5.918;2022-08-01T08:09:28;2.63;;;1.55;;
43519;SDS011;46848;51.980;5.918;2022-08-01T08:11:53;5.03;;;1.83;;
43519;SDS011;46848;51.980;5.918;2022-08-01T08:14:19;6.38;;;3.05;;
43519;SDS011;46848;51.980;5.918;2022-08-01T08:16:47;4.20;;;2.45;;
43519;SDS011;46848;51.980;5.918;2022-08-01T08:19:13;3.40;;;2.10;;
43519;SDS011;46848;51.980;5.918;2022-08-01T08:21:39;2.60;;;1.58;;
43519;SDS011;46848;51.980;5.918;2022-08-01T08:24:05;3.65;;;1.73;;
43519;SDS011;46848;51.980;5.918;2022-08-01T08:26:49;5.53;;;3.83;;
43519;SDS011;46848;51.980;5.918;2022-08-01T08:29:19;4.97;;;3.40;;
43519;SDS011;46848;51.980;5.918;2022-08-01T08:31:46;8.80;;;6.25;;
43519;SDS011;46848;51.980;5.918;2022-08-01T08:34:12;7.03;;;4.70;;
43519;SDS011;46848;51.980;5.918;2022-08-01T08:36:38;7.32;;;4.55;;
43519;SDS011;46848;51.980;5.918;2022-08-01T08:39:04;8.63;;;4.32;;
43519;SDS011;46848;51.980;5.918;2022-08-01T08:41:30;3.97;;;2.67;;
43519;SDS011;46848;51.980;5.918;2022-08-01T08:43:57;3.13;;;2.15;;
43519;SDS011;46848;51.980;5.918;2022-08-01T08:46:25;3.13;;;1.90;;
43519;SDS011;46848;51.980;5.918;2022-08-01T08:48:52;3.80;;;1.95;;
43519;SDS011;46848;51.980;5.918;2022-08-01T08:51:18;5.18;;;2.17;;
43519;SDS011;46848;51.980;5.918;2022-08-01T08:53:44;6.63;;;4.97;;
43519;SDS011;46848;51.980;5.918;2022-08-01T08:56:12;10.10;;;7.20;;
43519;SDS011;46848;51.980;5.918;2022-08-01T08:58:40;7.13;;;5.03;;
43519;SDS011;46848;51.980;5.918;2022-08-01T09:01:08;8.05;;;4.53;;
43519;SDS011;46848;51.980;5.918;2022-08-01T09:03:35;4.43;;;3.08;;
43519;SDS011;46848;51.980;5.918;2022-08-01T09:06:01;4.25;;;2.55;;
43519;SDS011;46848;51.980;5.918;2022-08-01T09:08:27;4.78;;;2.65;;
43519;SDS011;46848;51.980;5.918;2022-08-01T09:10:52;4.97;;;2.50;;
43519;SDS011;46848;51.980;5.918;2022-08-01T09:13:18;2.88;;;1.95;;
43519;SDS011;46848;51.980;5.918;2022-08-01T09:15:45;3.85;;;2.60;;
43519;SDS011;46848;51.980;5.918;2022-08-01T09:23:41;2.83;;;1.58;;
43519;SDS011;46848;51.980;5.918;2022-08-01T09:26:09;4.00;;;1.50;;
43519;SDS011;46848;51.980;5.918;2022-08-01T09:28:36;3.63;;;1.45;;
43519;SDS011;46848;51.980;5.918;2022-08-01T09:31:10;3.17;;;1.70;;
43519;SDS011;46848;51.980;5.918;2022-08-01T09:33:56;2.95;;;1.65;;
43519;SDS011;46848;51.980;5.918;2022-08-01T09:36:26;3.92;;;1.63;;
43519;SDS011;46848;51.980;5.918;2022-08-01T09:39:12;3.60;;;1.73;;
43519;SDS011;46848;51.980;5.918;2022-08-01T09:41:38;5.53;;;1.83;;
43519;SDS011;46848;51.980;5.918;2022-08-01T09:44:04;3.15;;;1.70;;
43519;SDS011;46848;51.980;5.918;2022-08-01T09:46:30;5.55;;;1.70;;
43519;SDS011;46848;51.980;5.918;2022-08-01T09:49:03;5.50;;;1.85;;
43519;SDS011;46848;51.980;5.918;2022-08-01T09:51:33;6.82;;;5.15;;
43519;SDS011;46848;51.980;5.918;2022-08-01T09:54:02;16.63;;;11.27;;
43519;SDS011;46848;51.980;5.918;2022-08-01T09:56:35;10.77;;;6.47;;
43519;SDS011;46848;51.980;5.918;2022-08-01T09:59:05;9.55;;;5.10;;
43519;SDS011;46848;51.980;5.918;2022-08-01T10:01:49;7.90;;;4.80;;
43519;SDS011;46848;51.980;5.918;2022-08-01T10:04:16;6.82;;;4.10;;
43519;SDS011;46848;51.980;5.918;2022-08-01T10:06:46;5.40;;;3.38;;
43519;SDS011;46848;51.980;5.918;2022-08-01T10:09:27;7.90;;;4.07;;
43519;SDS011;46848;51.980;5.918;2022-08-01T10:11:55;6.85;;;3.38;;
43519;SDS011;46848;51.980;5.918;2022-08-01T10:14:25;7.25;;;2.88;;
43519;SDS011;46848;51.980;5.918;2022-08-01T10:16:52;6.50;;;2.78;;
43519;SDS011;46848;51.980;5.918;2022-08-01T10:19:18;6.35;;;3.08;;
43519;SDS011;46848;51.980;5.918;2022-08-01T10:21:48;5.72;;;2.70;;
43519;SDS011;46848;51.980;5.918;2022-08-01T10:24:17;6.75;;;2.53;;
43519;SDS011;46848;51.980;5.918;2022-08-01T10:26:48;7.28;;;2.67;;
43519;SDS011;46848;51.980;5.918;2022-08-01T10:32:07;8.82;;;3.22;;
43519;SDS011;46848;51.980;5.918;2022-08-01T10:34:35;9.70;;;3.35;;
43519;SDS011;46848;51.980;5.918;2022-08-01T10:37:02;10.68;;;5.30;;
43519;SDS011;46848;51.980;5.918;2022-08-01T10:39:30;12.80;;;7.72;;
43519;SDS011;46848;51.980;5.918;2022-08-01T10:41:56;12.35;;;6.38;;
43519;SDS011;46848;51.980;5.918;2022-08-01T10:44:23;13.80;;;5.50;;
43519;SDS011;46848;51.980;5.918;2022-08-01T10:46:52;8.65;;;4.40;;
43519;SDS011;46848;51.980;5.918;2022-08-01T10:49:24;9.45;;;4.28;;
43519;SDS011;46848;51.980;5.918;2022-08-01T10:51:53;9.55;;;4.40;;
43519;SDS011;46848;51.980;5.918;2022-08-01T10:54:20;9.27;;;4.35;;
43519;SDS011;46848;51.980;5.918;2022-08-01T10:56:50;7.32;;;2.92;;
43519;SDS011;46848;51.980;5.918;2022-08-01T10:59:21;8.77;;;2.72;;
43519;SDS011;46848;51.980;5.918;2022-08-01T11:02:00;7.93;;;2.92;;
43519;SDS011;46848;51.980;5.918;2022-08-01T11:05:12;9.45;;;2.70;;
43519;SDS011;46848;51.980;5.918;2022-08-01T11:07:37;7.22;;;2.47;;
43519;SDS011;46848;51.980;5.918;2022-08-01T11:10:10;5.32;;;2.30;;
43519;SDS011;46848;51.980;5.918;2022-08-01T11:12:48;8.50;;;2.20;;
43519;SDS011;46848;51.980;5.918;2022-08-01T11:17:44;5.13;;;1.75;;
43519;SDS011;46848;51.980;5.918;2022-08-01T11:20:15;6.57;;;2.30;;
43519;SDS011;46848;51.980;5.918;2022-08-01T11:33:07;7.10;;;2.08;;
43519;SDS011;46848;51.980;5.918;2022-08-01T11:35:34;5.18;;;2.00;;
43519;SDS011;46848;51.980;5.918;2022-08-01T11:41:09;4.20;;;1.92;;
43519;SDS011;46848;51.980;5.918;2022-08-01T11:46:45;9.48;;;1.90;;
43519;SDS011;46848;51.980;5.918;2022-08-01T11:50:06;5.00;;;1.85;;
43519;SDS011;46848;51.980;5.918;2022-08-01T11:52:23;4.90;;;1.60;;
43519;SDS011;46848;51.980;5.918;2022-08-01T11:57:18;6.80;;;1.90;;
43519;SDS011;46848;51.980;5.918;2022-08-01T11:59:47;6.75;;;1.67;;
43519;SDS011;46848;51.980;5.918;2022-08-01T12:02:28;3.15;;;1.42;;
43519;SDS011;46848;51.980;5.918;2022-08-01T12:04:57;6.78;;;2.17;;
43519;SDS011;46848;51.980;5.918;2022-08-01T12:07:27;6.53;;;1.80;;
43519;SDS011;46848;51.980;5.918;2022-08-01T12:10:04;4.18;;;1.50;;
43519;SDS011;46848;51.980;5.918;2022-08-01T12:12:36;6.60;;;1.45;;
43519;SDS011;46848;51.980;5.918;2022-08-01T12:15:07;7.40;;;1.73;;
43519;SDS011;46848;51.980;5.918;2022-08-01T12:20:23;5.30;;;1.48;;
43519;SDS011;46848;51.980;5.918;2022-08-01T12:22:52;5.80;;;1.58;;
43519;SDS011;46848;51.980;5.918;2022-08-01T12:25:19;5.72;;;1.67;;
43519;SDS011;46848;51.980;5.918;2022-08-01T12:27:45;4.35;;;1.35;;
43519;SDS011;46848;51.980;5.918;2022-08-01T12:30:15;6.40;;;1.50;;
43519;SDS011;46848;51.980;5.918;2022-08-01T12:32:43;6.22;;;1.42;;
43519;SDS011;46848;51.980;5.918;2022-08-01T12:37:40;6.07;;;1.50;;
43519;SDS011;46848;51.980;5.918;2022-08-01T12:40:10;6.10;;;1.58;;
43519;SDS011;46848;51.980;5.918;2022-08-01T12:42:44;7.55;;;1.50;;
43519;SDS011;46848;51.980;5.918;2022-08-01T12:45:13;5.20;;;1.45;;
43519;SDS011;46848;51.980;5.918;2022-08-01T12:47:40;6.95;;;1.80;;
43519;SDS011;46848;51.980;5.918;2022-08-01T12:50:08;5.15;;;1.95;;
43519;SDS011;46848;51.980;5.918;2022-08-01T12:52:39;5.78;;;1.65;;
43519;SDS011;46848;51.980;5.918;2022-08-01T12:55:24;6.05;;;1.38;;
43519;SDS011;46848;51.980;5.918;2022-08-01T12:58:12;5.82;;;1.60;;
43519;SDS011;46848;51.980;5.918;2022-08-01T13:00:38;6.63;;;1.45;;
43519;SDS011;46848;51.980;5.918;2022-08-01T13:03:10;3.97;;;1.30;;
43519;SDS011;46848;51.980;5.918;2022-08-01T13:05:43;7.10;;;1.35;;
43519;SDS011;46848;51.980;5.918;2022-08-01T13:08:20;4.63;;;1.33;;
43519;SDS011;46848;51.980;5.918;2022-08-01T13:10:47;5.15;;;1.23;;
43519;SDS011;46848;51.980;5.918;2022-08-01T13:13:15;6.97;;;1.60;;
43519;SDS011;46848;51.980;5.918;2022-08-01T13:15:42;5.43;;;1.52;;
43519;SDS011;46848;51.980;5.918;2022-08-01T13:18:25;4.53;;;1.20;;
43519;SDS011;46848;51.980;5.918;2022-08-01T13:23:37;4.93;;;1.20;;
43519;SDS011;46848;51.980;5.918;2022-08-01T13:26:04;3.67;;;1.05;;
43519;SDS011;46848;51.980;5.918;2022-08-01T13:28:30;7.40;;;2.13;;
43519;SDS011;46848;51.980;5.918;2022-08-01T13:30:58;5.95;;;1.83;;
43519;SDS011;46848;51.980;5.918;2022-08-01T13:33:24;5.05;;;2.08;;
43519;SDS011;46848;51.980;5.918;2022-08-01T13:35:52;6.28;;;2.00;;
43519;SDS011;46848;51.980;5.918;2022-08-01T13:38:19;7.43;;;1.55;;
43519;SDS011;46848;51.980;5.918;2022-08-01T13:40:44;5.85;;;1.70;;
43519;SDS011;46848;51.980;5.918;2022-08-01T13:43:10;6.18;;;1.85;;
43519;SDS011;46848;51.980;5.918;2022-08-01T13:45:36;6.80;;;1.67;;
43519;SDS011;46848;51.980;5.918;2022-08-01T13:48:03;5.70;;;1.60;;
43519;SDS011;46848;51.980;5.918;2022-08-01T13:50:29;4.95;;;1.38;;
43519;SDS011;46848;51.980;5.918;2022-08-01T13:52:55;4.70;;;1.40;;
43519;SDS011;46848;51.980;5.918;2022-08-01T13:55:21;6.18;;;2.13;;
43519;SDS011;46848;51.980;5.918;2022-08-01T13:57:46;7.75;;;1.88;;
43519;SDS011;46848;51.980;5.918;2022-08-01T14:00:12;5.97;;;1.80;;
43519;SDS011;46848;51.980;5.918;2022-08-01T14:02:38;5.13;;;1.70;;
43519;SDS011;46848;51.980;5.918;2022-08-01T14:05:04;6.47;;;2.08;;
43519;SDS011;46848;51.980;5.918;2022-08-01T14:07:30;3.22;;;1.33;;
43519;SDS011;46848;51.980;5.918;2022-08-01T14:09:56;5.53;;;1.50;;
43519;SDS011;46848;51.980;5.918;2022-08-01T14:12:21;3.72;;;1.15;;
43519;SDS011;46848;51.980;5.918;2022-08-01T14:14:47;3.90;;;1.42;;
43519;SDS011;46848;51.980;5.918;2022-08-01T14:17:13;4.90;;;1.42;;
43519;SDS011;46848;51.980;5.918;2022-08-01T14:19:38;4.32;;;1.20;;
43519;SDS011;46848;51.980;5.918;2022-08-01T14:22:04;3.88;;;1.23;;
43519;SDS011;46848;51.980;5.918;2022-08-01T14:24:29;4.32;;;1.10;;
43519;SDS011;46848;51.980;5.918;2022-08-01T14:26:55;4.18;;;1.10;;
43519;SDS011;46848;51.980;5.918;2022-08-01T14:29:21;3.10;;;1.10;;
43519;SDS011;46848;51.980;5.918;2022-08-01T14:31:46;4.70;;;1.30;;
43519;SDS011;46848;51.980;5.918;2022-08-01T14:34:12;4.88;;;1.20;;
43519;SDS011;46848;51.980;5.918;2022-08-01T14:36:38;5.43;;;1.10;;
43519;SDS011;46848;51.980;5.918;2022-08-01T14:39:03;4.85;;;1.50;;
43519;SDS011;46848;51.980;5.918;2022-08-01T14:41:29;6.32;;;1.40;;
43519;SDS011;46848;51.980;5.918;2022-08-01T14:43:55;4.53;;;1.02;;
43519;SDS011;46848;51.980;5.918;2022-08-01T14:46:21;3.58;;;1.33;;
43519;SDS011;46848;51.980;5.918;2022-08-01T14:48:46;4.55;;;1.05;;
43519;SDS011;46848;51.980;5.918;2022-08-01T14:51:12;3.47;;;0.93;;
43519;SDS011;46848;51.980;5.918;2022-08-01T14:53:37;3.85;;;1.23;;
43519;SDS011;46848;51.980;5.918;2022-08-01T14:56:04;3.97;;;1.45;;
43519;SDS011;46848;51.980;5.918;2022-08-01T14:58:30;4.72;;;1.52;;
43519;SDS011;46848;51.980;5.918;2022-08-01T15:00:56;5.43;;;1.33;;
43519;SDS011;46848;51.980;5.918;2022-08-01T15:03:22;2.13;;;0.68;;
43519;SDS011;46848;51.980;5.918;2022-08-01T15:05:48;3.15;;;0.90;;
43519;SDS011;46848;51.980;5.918;2022-08-01T15:08:13;2.40;;;0.63;;
43519;SDS011;46848;51.980;5.918;2022-08-01T15:10:39;3.28;;;0.85;;
43519;SDS011;46848;51.980;5.918;2022-08-01T15:13:05;1.58;;;0.60;;
43519;SDS011;46848;51.980;5.918;2022-08-01T15:15:30;3.70;;;0.90;;
43519;SDS011;46848;51.980;5.918;2022-08-01T15:17:56;3.88;;;0.80;;
43519;SDS011;46848;51.980;5.918;2022-08-01T15:20:22;1.92;;;0.80;;
43519;SDS011;46848;51.980;5.918;2022-08-01T15:22:48;3.47;;;1.30;;
43519;SDS011;46848;51.980;5.918;2022-08-01T15:25:13;2.38;;;0.90;;
43519;SDS011;46848;51.980;5.918;2022-08-01T15:27:39;2.92;;;0.77;;
43519;SDS011;46848;51.980;5.918;2022-08-01T15:30:05;2.67;;;1.00;;
43519;SDS011;46848;51.980;5.918;2022-08-01T15:32:31;3.67;;;1.00;;
43519;SDS011;46848;51.980;5.918;2022-08-01T15:34:56;4.63;;;0.70;;
43519;SDS011;46848;51.980;5.918;2022-08-01T15:37:22;3.28;;;0.82;;
43519;SDS011;46848;51.980;5.918;2022-08-01T15:39:48;3.72;;;1.10;;
43519;SDS011;46848;51.980;5.918;2022-08-01T15:42:15;2.88;;;0.80;;
43519;SDS011;46848;51.980;5.918;2022-08-01T15:44:42;3.00;;;0.73;;